sensor_id;sensor_type;location;lat;lon;timestamp;P1;durP1;ratioP1;P2;durP2;ratioP2
1567;SDS011;777;47.156;8.326;2023-08-08T00:00:44;2.13;;;1.60;;
1567;SDS011;777;47.156;8.326;2023-08-08T00:03:12;3.25;;;1.40;;
1567;SDS011;777;47.156;8.326;2023-08-08T00:05:39;3.17;;;1.10;;
1567;SDS011;777;47.156;8.326;2023-08-08T00:08:07;2.95;;;1.40;;
1567;SDS011;777;47.156;8.326;2023-08-08T00:10:34;2.10;;;1.40;;
1567;SDS011;777;47.156;8.326;2023-08-08T00:13:01;2.08;;;1.30;;
1567;SDS011;777;47.156;8.326;2023-08-08T00:15:28;2.33;;;1.30;;
1567;SDS011;777;47.156;8.326;2023-08-08T00:17:55;2.90;;;1.35;;
1567;SDS011;777;47.156;8.326;2023-08-08T00:20:24;1.88;;;1.20;;
1567;SDS011;777;47.156;8.326;2023-08-08T00:22:51;1.88;;;1.40;;
1567;SDS011;777;47.156;8.326;2023-08-08T00:25:18;1.60;;;1.50;;
1567;SDS011;777;47.156;8.326;2023-08-08T00:27:45;2.22;;;1.40;;
1567;SDS011;777;47.156;8.326;2023-08-08T00:30:12;2.15;;;1.30;;
1567;SDS011;777;47.156;8.326;2023-08-08T00:32:39;2.28;;;1.50;;
1567;SDS011;777;47.156;8.326;2023-08-08T00:35:07;2.25;;;1.60;;
1567;SDS011;777;47.156;8.326;2023-08-08T00:37:37;2.28;;;1.40;;
1567;SDS011;777;47.156;8.326;2023-08-08T00:40:04;2.05;;;1.50;;
1567;SDS011;777;47.156;8.326;2023-08-08T00:42:32;1.60;;;1.10;;
1567;SDS011;777;47.156;8.326;2023-08-08T00:44:59;1.40;;;1.10;;
1567;SDS011;777;47.156;8.326;2023-08-08T00:47:29;1.88;;;1.38;;
1567;SDS011;777;47.156;8.326;2023-08-08T00:49:56;2.38;;;1.58;;
1567;SDS011;777;47.156;8.326;2023-08-08T00:52:24;4.88;;;1.45;;
1567;SDS011;777;47.156;8.326;2023-08-08T00:54:53;1.40;;;1.30;;
1567;SDS011;777;47.156;8.326;2023-08-08T00:57:20;2.47;;;1.20;;
1567;SDS011;777;47.156;8.326;2023-08-08T00:59:47;1.92;;;1.45;;
1567;SDS011;777;47.156;8.326;2023-08-08T01:02:14;2.58;;;1.70;;
1567;SDS011;777;47.156;8.326;2023-08-08T01:04:41;2.30;;;1.50;;
1567;SDS011;777;47.156;8.326;2023-08-08T01:07:15;2.08;;;1.50;;
1567;SDS011;777;47.156;8.326;2023-08-08T01:09:48;2.75;;;1.30;;
1567;SDS011;777;47.156;8.326;2023-08-08T01:12:22;2.03;;;1.48;;
1567;SDS011;777;47.156;8.326;2023-08-08T01:14:52;4.25;;;1.60;;
1567;SDS011;777;47.156;8.326;2023-08-08T01:17:20;1.95;;;1.27;;
1567;SDS011;777;47.156;8.326;2023-08-08T01:19:48;2.33;;;1.38;;
1567;SDS011;777;47.156;8.326;2023-08-08T01:22:19;2.20;;;1.10;;
1567;SDS011;777;47.156;8.326;2023-08-08T01:24:53;2.97;;;1.15;;
1567;SDS011;777;47.156;8.326;2023-08-08T01:27:22;2.55;;;1.20;;
1567;SDS011;777;47.156;8.326;2023-08-08T01:29:49;1.60;;;1.15;;
1567;SDS011;777;47.156;8.326;2023-08-08T01:32:16;2.10;;;1.10;;
1567;SDS011;777;47.156;8.326;2023-08-08T01:34:43;1.85;;;1.20;;
1567;SDS011;777;47.156;8.326;2023-08-08T01:37:11;1.73;;;1.30;;
1567;SDS011;777;47.156;8.326;2023-08-08T01:39:43;2.23;;;1.30;;
1567;SDS011;777;47.156;8.326;2023-08-08T01:42:13;3.78;;;1.27;;
1567;SDS011;777;47.156;8.326;2023-08-08T01:44:41;2.65;;;1.27;;
1567;SDS011;777;47.156;8.326;2023-08-08T01:47:08;2.65;;;1.65;;
1567;SDS011;777;47.156;8.326;2023-08-08T01:49:36;2.55;;;1.30;;
1567;SDS011;777;47.156;8.326;2023-08-08T01:52:03;3.15;;;1.15;;
1567;SDS011;777;47.156;8.326;2023-08-08T01:54:31;2.10;;;1.30;;
1567;SDS011;777;47.156;8.326;2023-08-08T01:56:58;2.95;;;1.20;;
1567;SDS011;777;47.156;8.326;2023-08-08T01:59:26;1.80;;;1.13;;
1567;SDS011;777;47.156;8.326;2023-08-08T02:01:53;1.52;;;1.00;;
1567;SDS011;777;47.156;8.326;2023-08-08T02:04:21;2.63;;;1.30;;
1567;SDS011;777;47.156;8.326;2023-08-08T02:06:48;1.60;;;1.17;;
1567;SDS011;777;47.156;8.326;2023-08-08T02:09:15;1.50;;;1.23;;
1567;SDS011;777;47.156;8.326;2023-08-08T02:11:41;1.88;;;1.25;;
1567;SDS011;777;47.156;8.326;2023-08-08T02:14:08;2.28;;;1.40;;
1567;SDS011;777;47.156;8.326;2023-08-08T02:16:37;4.00;;;1.20;;
1567;SDS011;777;47.156;8.326;2023-08-08T02:19:04;3.05;;;1.30;;
1567;SDS011;777;47.156;8.326;2023-08-08T02:21:31;1.80;;;1.45;;
1567;SDS011;777;47.156;8.326;2023-08-08T02:23:58;1.45;;;1.33;;
1567;SDS011;777;47.156;8.326;2023-08-08T02:26:26;3.83;;;1.50;;
1567;SDS011;777;47.156;8.326;2023-08-08T02:28:53;5.35;;;1.30;;
1567;SDS011;777;47.156;8.326;2023-08-08T02:31:20;3.05;;;1.40;;
1567;SDS011;777;47.156;8.326;2023-08-08T02:33:49;1.90;;;1.23;;
1567;SDS011;777;47.156;8.326;2023-08-08T02:36:17;2.28;;;1.48;;
1567;SDS011;777;47.156;8.326;2023-08-08T02:38:45;2.65;;;1.17;;
1567;SDS011;777;47.156;8.326;2023-08-08T02:41:12;2.97;;;1.40;;
1567;SDS011;777;47.156;8.326;2023-08-08T02:43:39;2.00;;;1.27;;
1567;SDS011;777;47.156;8.326;2023-08-08T02:46:06;1.67;;;1.17;;
1567;SDS011;777;47.156;8.326;2023-08-08T02:48:33;2.42;;;1.20;;
1567;SDS011;777;47.156;8.326;2023-08-08T02:51:01;1.52;;;1.20;;
1567;SDS011;777;47.156;8.326;2023-08-08T02:53:29;1.63;;;1.10;;
1567;SDS011;777;47.156;8.326;2023-08-08T02:55:56;2.33;;;1.20;;
1567;SDS011;777;47.156;8.326;2023-08-08T02:58:25;3.55;;;1.08;;
1567;SDS011;777;47.156;8.326;2023-08-08T03:00:52;3.22;;;1.20;;
1567;SDS011;777;47.156;8.326;2023-08-08T03:03:19;2.28;;;1.10;;
1567;SDS011;777;47.156;8.326;2023-08-08T03:05:46;1.92;;;1.10;;
1567;SDS011;777;47.156;8.326;2023-08-08T03:08:17;2.17;;;1.30;;
1567;SDS011;777;47.156;8.326;2023-08-08T03:10:44;2.38;;;1.17;;
1567;SDS011;777;47.156;8.326;2023-08-08T03:13:12;1.80;;;1.27;;
1567;SDS011;777;47.156;8.326;2023-08-08T03:15:40;2.95;;;1.20;;
1567;SDS011;777;47.156;8.326;2023-08-08T03:18:08;2.30;;;1.10;;
1567;SDS011;777;47.156;8.326;2023-08-08T03:20:35;4.10;;;1.17;;
1567;SDS011;777;47.156;8.326;2023-08-08T03:23:02;2.55;;;1.20;;
1567;SDS011;777;47.156;8.326;2023-08-08T03:25:32;3.05;;;1.45;;
1567;SDS011;777;47.156;8.326;2023-08-08T03:28:00;1.60;;;1.10;;
1567;SDS011;777;47.156;8.326;2023-08-08T03:30:27;2.00;;;1.23;;
1567;SDS011;777;47.156;8.326;2023-08-08T03:32:54;1.25;;;1.05;;
1567;SDS011;777;47.156;8.326;2023-08-08T03:35:21;2.10;;;1.40;;
1567;SDS011;777;47.156;8.326;2023-08-08T03:37:49;1.98;;;1.40;;
1567;SDS011;777;47.156;8.326;2023-08-08T03:40:16;2.03;;;1.40;;
1567;SDS011;777;47.156;8.326;2023-08-08T03:42:44;2.08;;;1.30;;
1567;SDS011;777;47.156;8.326;2023-08-08T03:45:12;1.80;;;1.27;;
1567;SDS011;777;47.156;8.326;2023-08-08T03:47:39;3.10;;;1.40;;
1567;SDS011;777;47.156;8.326;2023-08-08T03:50:07;2.80;;;1.27;;
1567;SDS011;777;47.156;8.326;2023-08-08T03:52:36;2.45;;;1.23;;
1567;SDS011;777;47.156;8.326;2023-08-08T03:55:10;1.73;;;1.20;;
1567;SDS011;777;47.156;8.326;2023-08-08T03:57:38;1.75;;;1.30;;
1567;SDS011;777;47.156;8.326;2023-08-08T04:00:07;2.00;;;1.40;;
1567;SDS011;777;47.156;8.326;2023-08-08T04:02:39;2.30;;;1.50;;
1567;SDS011;777;47.156;8.326;2023-08-08T04:05:06;3.25;;;1.38;;
1567;SDS011;777;47.156;8.326;2023-08-08T04:07:34;2.33;;;1.33;;
1567;SDS011;777;47.156;8.326;2023-08-08T04:10:01;1.83;;;1.33;;
1567;SDS011;777;47.156;8.326;2023-08-08T04:12:28;1.80;;;1.48;;
1567;SDS011;777;47.156;8.326;2023-08-08T04:14:55;2.50;;;1.30;;
1567;SDS011;777;47.156;8.326;2023-08-08T04:17:23;2.85;;;1.63;;
1567;SDS011;777;47.156;8.326;2023-08-08T04:19:50;2.15;;;1.50;;
1567;SDS011;777;47.156;8.326;2023-08-08T04:22:17;2.20;;;1.70;;
1567;SDS011;777;47.156;8.326;2023-08-08T04:24:44;3.05;;;1.58;;
1567;SDS011;777;47.156;8.326;2023-08-08T04:27:11;2.33;;;1.80;;
1567;SDS011;777;47.156;8.326;2023-08-08T04:29:38;1.95;;;1.67;;
1567;SDS011;777;47.156;8.326;2023-08-08T04:32:06;1.77;;;1.60;;
1567;SDS011;777;47.156;8.326;2023-08-08T04:34:34;2.78;;;1.80;;
1567;SDS011;777;47.156;8.326;2023-08-08T04:37:01;4.70;;;1.88;;
1567;SDS011;777;47.156;8.326;2023-08-08T04:39:28;3.65;;;1.70;;
1567;SDS011;777;47.156;8.326;2023-08-08T04:41:55;3.05;;;1.60;;
1567;SDS011;777;47.156;8.326;2023-08-08T04:44:22;4.13;;;1.90;;
1567;SDS011;777;47.156;8.326;2023-08-08T04:46:49;4.93;;;1.92;;
1567;SDS011;777;47.156;8.326;2023-08-08T04:49:16;2.60;;;1.80;;
1567;SDS011;777;47.156;8.326;2023-08-08T04:51:45;2.80;;;1.77;;
1567;SDS011;777;47.156;8.326;2023-08-08T04:54:12;4.20;;;1.90;;
1567;SDS011;777;47.156;8.326;2023-08-08T04:56:39;5.00;;;2.28;;
1567;SDS011;777;47.156;8.326;2023-08-08T04:59:06;3.30;;;1.92;;
1567;SDS011;777;47.156;8.326;2023-08-08T05:01:33;3.28;;;2.45;;
1567;SDS011;777;47.156;8.326;2023-08-08T05:04:00;3.40;;;2.30;;
1567;SDS011;777;47.156;8.326;2023-08-08T05:06:27;5.10;;;2.60;;
1567;SDS011;777;47.156;8.326;2023-08-08T05:08:55;4.15;;;2.35;;
1567;SDS011;777;47.156;8.326;2023-08-08T05:11:23;3.63;;;2.33;;
1567;SDS011;777;47.156;8.326;2023-08-08T05:13:50;3.88;;;2.10;;
1567;SDS011;777;47.156;8.326;2023-08-08T05:16:17;4.07;;;1.73;;
1567;SDS011;777;47.156;8.326;2023-08-08T05:18:44;3.20;;;1.80;;
1567;SDS011;777;47.156;8.326;2023-08-08T05:21:11;4.22;;;1.55;;
1567;SDS011;777;47.156;8.326;2023-08-08T05:23:38;2.53;;;1.33;;
1567;SDS011;777;47.156;8.326;2023-08-08T05:26:07;1.67;;;1.20;;
1567;SDS011;777;47.156;8.326;2023-08-08T05:28:34;2.30;;;1.20;;
1567;SDS011;777;47.156;8.326;2023-08-08T05:31:01;1.90;;;1.20;;
1567;SDS011;777;47.156;8.326;2023-08-08T05:33:28;1.80;;;1.30;;
1567;SDS011;777;47.156;8.326;2023-08-08T05:35:55;4.10;;;1.35;;
1567;SDS011;777;47.156;8.326;2023-08-08T05:38:22;2.90;;;1.20;;
1567;SDS011;777;47.156;8.326;2023-08-08T05:40:49;3.15;;;1.38;;
1567;SDS011;777;47.156;8.326;2023-08-08T05:43:18;1.98;;;1.42;;
1567;SDS011;777;47.156;8.326;2023-08-08T05:45:46;2.40;;;1.30;;
1567;SDS011;777;47.156;8.326;2023-08-08T05:48:13;2.88;;;1.15;;
1567;SDS011;777;47.156;8.326;2023-08-08T05:50:40;2.83;;;1.50;;
1567;SDS011;777;47.156;8.326;2023-08-08T05:53:07;2.15;;;1.33;;
1567;SDS011;777;47.156;8.326;2023-08-08T05:55:35;2.40;;;1.40;;
1567;SDS011;777;47.156;8.326;2023-08-08T05:58:02;2.53;;;1.30;;
1567;SDS011;777;47.156;8.326;2023-08-08T06:00:31;2.10;;;1.38;;
1567;SDS011;777;47.156;8.326;2023-08-08T06:02:58;4.10;;;1.50;;
1567;SDS011;777;47.156;8.326;2023-08-08T06:05:25;2.25;;;1.55;;
1567;SDS011;777;47.156;8.326;2023-08-08T06:07:52;2.85;;;1.20;;
1567;SDS011;777;47.156;8.326;2023-08-08T06:10:20;1.98;;;1.30;;
1567;SDS011;777;47.156;8.326;2023-08-08T06:12:47;4.93;;;1.10;;
1567;SDS011;777;47.156;8.326;2023-08-08T06:15:14;1.70;;;1.25;;
1567;SDS011;777;47.156;8.326;2023-08-08T06:17:42;1.42;;;1.30;;
1567;SDS011;777;47.156;8.326;2023-08-08T06:20:10;2.72;;;1.33;;
1567;SDS011;777;47.156;8.326;2023-08-08T06:22:37;3.17;;;1.35;;
1567;SDS011;777;47.156;8.326;2023-08-08T06:25:05;2.45;;;1.40;;
1567;SDS011;777;47.156;8.326;2023-08-08T06:27:33;1.83;;;1.20;;
1567;SDS011;777;47.156;8.326;2023-08-08T06:30:00;3.13;;;1.52;;
1567;SDS011;777;47.156;8.326;2023-08-08T06:32:28;4.50;;;1.30;;
1567;SDS011;777;47.156;8.326;2023-08-08T06:34:56;4.00;;;1.40;;
1567;SDS011;777;47.156;8.326;2023-08-08T06:37:24;2.30;;;1.17;;
1567;SDS011;777;47.156;8.326;2023-08-08T06:39:51;2.95;;;1.40;;
1567;SDS011;777;47.156;8.326;2023-08-08T06:42:18;2.05;;;1.20;;
1567;SDS011;777;47.156;8.326;2023-08-08T06:44:53;2.65;;;1.38;;
1567;SDS011;777;47.156;8.326;2023-08-08T06:47:20;3.83;;;1.45;;
1567;SDS011;777;47.156;8.326;2023-08-08T06:49:47;3.10;;;1.30;;
1567;SDS011;777;47.156;8.326;2023-08-08T06:52:15;2.67;;;1.60;;
1567;SDS011;777;47.156;8.326;2023-08-08T06:54:42;1.80;;;1.30;;
1567;SDS011;777;47.156;8.326;2023-08-08T06:57:10;3.22;;;1.45;;
1567;SDS011;777;47.156;8.326;2023-08-08T06:59:37;1.60;;;1.00;;
1567;SDS011;777;47.156;8.326;2023-08-08T07:02:04;1.90;;;1.02;;
1567;SDS011;777;47.156;8.326;2023-08-08T07:04:32;2.20;;;1.15;;
1567;SDS011;777;47.156;8.326;2023-08-08T07:06:59;4.38;;;1.20;;
1567;SDS011;777;47.156;8.326;2023-08-08T07:09:27;4.22;;;1.38;;
1567;SDS011;777;47.156;8.326;2023-08-08T07:11:54;1.42;;;1.10;;
1567;SDS011;777;47.156;8.326;2023-08-08T07:14:21;1.80;;;1.00;;
1567;SDS011;777;47.156;8.326;2023-08-08T07:16:48;3.00;;;1.20;;
1567;SDS011;777;47.156;8.326;2023-08-08T07:19:15;2.00;;;1.00;;
1567;SDS011;777;47.156;8.326;2023-08-08T07:21:44;2.95;;;1.10;;
1567;SDS011;777;47.156;8.326;2023-08-08T07:24:12;4.50;;;1.20;;
1567;SDS011;777;47.156;8.326;2023-08-08T07:26:40;6.55;;;2.10;;
1567;SDS011;777;47.156;8.326;2023-08-08T07:29:07;3.80;;;1.70;;
1567;SDS011;777;47.156;8.326;2023-08-08T07:31:34;3.25;;;1.55;;
1567;SDS011;777;47.156;8.326;2023-08-08T07:34:01;2.03;;;1.10;;
1567;SDS011;777;47.156;8.326;2023-08-08T07:36:28;1.90;;;0.80;;
1567;SDS011;777;47.156;8.326;2023-08-08T07:38:55;4.47;;;1.27;;
1567;SDS011;777;47.156;8.326;2023-08-08T07:41:25;1.55;;;1.10;;
1567;SDS011;777;47.156;8.326;2023-08-08T07:43:53;2.38;;;1.08;;
1567;SDS011;777;47.156;8.326;2023-08-08T07:46:20;3.92;;;1.20;;
1567;SDS011;777;47.156;8.326;2023-08-08T07:48:47;2.75;;;0.95;;
1567;SDS011;777;47.156;8.326;2023-08-08T07:51:14;2.72;;;0.98;;
1567;SDS011;777;47.156;8.326;2023-08-08T07:53:41;2.25;;;1.10;;
1567;SDS011;777;47.156;8.326;2023-08-08T07:56:08;1.20;;;1.00;;
1567;SDS011;777;47.156;8.326;2023-08-08T07:58:35;1.38;;;0.90;;
1567;SDS011;777;47.156;8.326;2023-08-08T08:01:04;3.80;;;1.25;;
1567;SDS011;777;47.156;8.326;2023-08-08T08:03:31;2.85;;;1.10;;
1567;SDS011;777;47.156;8.326;2023-08-08T08:05:58;2.60;;;0.98;;
1567;SDS011;777;47.156;8.326;2023-08-08T08:08:25;2.40;;;0.77;;
1567;SDS011;777;47.156;8.326;2023-08-08T08:10:52;2.65;;;0.80;;
1567;SDS011;777;47.156;8.326;2023-08-08T08:13:19;1.40;;;1.05;;
1567;SDS011;777;47.156;8.326;2023-08-08T08:15:46;3.35;;;1.20;;
1567;SDS011;777;47.156;8.326;2023-08-08T08:18:15;4.82;;;1.10;;
1567;SDS011;777;47.156;8.326;2023-08-08T08:20:42;2.45;;;0.95;;
1567;SDS011;777;47.156;8.326;2023-08-08T08:23:10;1.88;;;0.90;;
1567;SDS011;777;47.156;8.326;2023-08-08T08:25:37;1.50;;;1.20;;
1567;SDS011;777;47.156;8.326;2023-08-08T08:28:04;1.60;;;1.15;;
1567;SDS011;777;47.156;8.326;2023-08-08T08:30:31;4.20;;;0.95;;
1567;SDS011;777;47.156;8.326;2023-08-08T08:32:58;2.08;;;1.00;;
1567;SDS011;777;47.156;8.326;2023-08-08T08:35:27;1.30;;;0.85;;
1567;SDS011;777;47.156;8.326;2023-08-08T08:37:54;2.25;;;1.10;;
1567;SDS011;777;47.156;8.326;2023-08-08T08:40:21;1.58;;;1.05;;
1567;SDS011;777;47.156;8.326;2023-08-08T08:42:48;2.05;;;0.90;;
1567;SDS011;777;47.156;8.326;2023-08-08T08:45:16;1.27;;;1.00;;
1567;SDS011;777;47.156;8.326;2023-08-08T08:47:47;2.20;;;0.90;;
1567;SDS011;777;47.156;8.326;2023-08-08T08:50:15;1.88;;;1.27;;
1567;SDS011;777;47.156;8.326;2023-08-08T08:52:46;3.05;;;0.98;;
1567;SDS011;777;47.156;8.326;2023-08-08T08:55:13;3.28;;;1.10;;
1567;SDS011;777;47.156;8.326;2023-08-08T08:57:40;1.58;;;0.98;;
1567;SDS011;777;47.156;8.326;2023-08-08T09:00:10;1.77;;;0.93;;
1567;SDS011;777;47.156;8.326;2023-08-08T09:02:38;3.38;;;1.10;;
1567;SDS011;777;47.156;8.326;2023-08-08T09:05:05;3.33;;;1.02;;
1567;SDS011;777;47.156;8.326;2023-08-08T09:07:33;4.18;;;1.45;;
1567;SDS011;777;47.156;8.326;2023-08-08T09:10:03;1.05;;;0.90;;
1567;SDS011;777;47.156;8.326;2023-08-08T09:12:31;2.40;;;1.00;;
1567;SDS011;777;47.156;8.326;2023-08-08T09:15:01;2.17;;;1.20;;
1567;SDS011;777;47.156;8.326;2023-08-08T09:17:29;2.38;;;1.38;;
1567;SDS011;777;47.156;8.326;2023-08-08T09:19:57;2.40;;;1.00;;
1567;SDS011;777;47.156;8.326;2023-08-08T09:22:24;3.00;;;1.27;;
1567;SDS011;777;47.156;8.326;2023-08-08T09:24:52;2.85;;;1.20;;
1567;SDS011;777;47.156;8.326;2023-08-08T09:27:20;1.75;;;0.95;;
1567;SDS011;777;47.156;8.326;2023-08-08T09:29:47;1.75;;;1.20;;
1567;SDS011;777;47.156;8.326;2023-08-08T09:32:14;2.00;;;1.25;;
1567;SDS011;777;47.156;8.326;2023-08-08T09:34:43;3.15;;;1.10;;
1567;SDS011;777;47.156;8.326;2023-08-08T09:37:11;3.58;;;1.33;;
1567;SDS011;777;47.156;8.326;2023-08-08T09:39:40;3.00;;;1.48;;
1567;SDS011;777;47.156;8.326;2023-08-08T09:42:07;3.33;;;1.10;;
1567;SDS011;777;47.156;8.326;2023-08-08T09:44:38;7.32;;;5.30;;
1567;SDS011;777;47.156;8.326;2023-08-08T09:47:05;5.10;;;2.80;;
1567;SDS011;777;47.156;8.326;2023-08-08T09:49:32;7.55;;;2.10;;
1567;SDS011;777;47.156;8.326;2023-08-08T09:52:01;10.68;;;2.83;;
1567;SDS011;777;47.156;8.326;2023-08-08T09:54:30;6.28;;;1.98;;
1567;SDS011;777;47.156;8.326;2023-08-08T09:56:58;4.10;;;1.63;;
1567;SDS011;777;47.156;8.326;2023-08-08T09:59:25;2.17;;;1.20;;
1567;SDS011;777;47.156;8.326;2023-08-08T10:01:54;1.50;;;0.95;;
1567;SDS011;777;47.156;8.326;2023-08-08T10:04:23;2.33;;;1.27;;
1567;SDS011;777;47.156;8.326;2023-08-08T10:06:51;1.92;;;1.20;;
1567;SDS011;777;47.156;8.326;2023-08-08T10:09:18;1.63;;;1.08;;
1567;SDS011;777;47.156;8.326;2023-08-08T10:11:46;3.03;;;1.23;;
1567;SDS011;777;47.156;8.326;2023-08-08T10:14:14;1.70;;;0.70;;
1567;SDS011;777;47.156;8.326;2023-08-08T10:16:41;1.85;;;1.13;;
1567;SDS011;777;47.156;8.326;2023-08-08T10:19:11;2.33;;;1.20;;
1567;SDS011;777;47.156;8.326;2023-08-08T10:21:41;3.25;;;1.20;;
1567;SDS011;777;47.156;8.326;2023-08-08T10:24:10;2.72;;;1.00;;
1567;SDS011;777;47.156;8.326;2023-08-08T10:26:50;2.72;;;0.90;;
1567;SDS011;777;47.156;8.326;2023-08-08T10:29:18;1.52;;;0.77;;
1567;SDS011;777;47.156;8.326;2023-08-08T10:31:50;1.83;;;0.77;;
1567;SDS011;777;47.156;8.326;2023-08-08T10:34:20;1.83;;;0.80;;
1567;SDS011;777;47.156;8.326;2023-08-08T10:36:50;1.75;;;0.90;;
1567;SDS011;777;47.156;8.326;2023-08-08T10:39:19;1.27;;;0.60;;
1567;SDS011;777;47.156;8.326;2023-08-08T10:41:47;5.03;;;0.85;;
1567;SDS011;777;47.156;8.326;2023-08-08T10:44:22;3.63;;;1.20;;
1567;SDS011;777;47.156;8.326;2023-08-08T10:46:51;1.65;;;0.90;;
1567;SDS011;777;47.156;8.326;2023-08-08T10:49:20;1.35;;;0.90;;
1567;SDS011;777;47.156;8.326;2023-08-08T10:51:48;1.65;;;0.80;;
1567;SDS011;777;47.156;8.326;2023-08-08T10:54:17;2.92;;;0.90;;
1567;SDS011;777;47.156;8.326;2023-08-08T10:56:49;1.20;;;0.80;;
1567;SDS011;777;47.156;8.326;2023-08-08T10:59:18;1.92;;;0.80;;
1567;SDS011;777;47.156;8.326;2023-08-08T11:01:46;3.90;;;0.80;;
1567;SDS011;777;47.156;8.326;2023-08-08T11:04:15;1.63;;;0.95;;
1567;SDS011;777;47.156;8.326;2023-08-08T11:06:45;1.23;;;0.70;;
1567;SDS011;777;47.156;8.326;2023-08-08T11:09:15;2.35;;;1.02;;
1567;SDS011;777;47.156;8.326;2023-08-08T11:11:42;1.33;;;0.70;;
1567;SDS011;777;47.156;8.326;2023-08-08T11:14:11;2.20;;;0.80;;
1567;SDS011;777;47.156;8.326;2023-08-08T11:16:39;3.30;;;0.90;;
1567;SDS011;777;47.156;8.326;2023-08-08T11:19:06;1.42;;;0.70;;
1567;SDS011;777;47.156;8.326;2023-08-08T11:21:34;1.88;;;0.93;;
1567;SDS011;777;47.156;8.326;2023-08-08T11:24:05;4.45;;;0.98;;
1567;SDS011;777;47.156;8.326;2023-08-08T11:26:33;1.38;;;0.70;;
1567;SDS011;777;47.156;8.326;2023-08-08T11:29:00;1.15;;;0.65;;
1567;SDS011;777;47.156;8.326;2023-08-08T11:31:29;2.20;;;0.90;;
1567;SDS011;777;47.156;8.326;2023-08-08T11:33:58;3.13;;;0.80;;
1567;SDS011;777;47.156;8.326;2023-08-08T11:36:25;1.67;;;0.80;;
1567;SDS011;777;47.156;8.326;2023-08-08T11:38:55;1.30;;;0.60;;
1567;SDS011;777;47.156;8.326;2023-08-08T11:41:25;1.45;;;0.73;;
1567;SDS011;777;47.156;8.326;2023-08-08T11:43:53;1.42;;;0.60;;
1567;SDS011;777;47.156;8.326;2023-08-08T11:46:22;1.75;;;0.68;;
1567;SDS011;777;47.156;8.326;2023-08-08T11:48:50;1.73;;;0.70;;
1567;SDS011;777;47.156;8.326;2023-08-08T11:51:17;1.33;;;0.70;;
1567;SDS011;777;47.156;8.326;2023-08-08T11:53:48;1.80;;;0.73;;
1567;SDS011;777;47.156;8.326;2023-08-08T11:56:16;3.45;;;0.90;;
1567;SDS011;777;47.156;8.326;2023-08-08T11:58:45;1.08;;;0.52;;
1567;SDS011;777;47.156;8.326;2023-08-08T12:01:12;3.22;;;0.70;;
1567;SDS011;777;47.156;8.326;2023-08-08T12:03:40;1.15;;;0.70;;
1567;SDS011;777;47.156;8.326;2023-08-08T12:06:13;1.20;;;0.70;;
1567;SDS011;777;47.156;8.326;2023-08-08T12:08:41;1.58;;;0.70;;
1567;SDS011;777;47.156;8.326;2023-08-08T12:11:10;1.45;;;0.80;;
1567;SDS011;777;47.156;8.326;2023-08-08T12:13:38;1.20;;;0.80;;
1567;SDS011;777;47.156;8.326;2023-08-08T12:16:08;0.90;;;0.70;;
1567;SDS011;777;47.156;8.326;2023-08-08T12:18:36;2.03;;;0.90;;
1567;SDS011;777;47.156;8.326;2023-08-08T12:21:04;1.20;;;0.70;;
1567;SDS011;777;47.156;8.326;2023-08-08T12:23:31;2.67;;;0.70;;
1567;SDS011;777;47.156;8.326;2023-08-08T12:26:00;1.15;;;0.70;;
1567;SDS011;777;47.156;8.326;2023-08-08T12:28:30;2.00;;;0.60;;
1567;SDS011;777;47.156;8.326;2023-08-08T12:30:57;1.05;;;0.60;;
1567;SDS011;777;47.156;8.326;2023-08-08T12:33:26;1.25;;;0.60;;
1567;SDS011;777;47.156;8.326;2023-08-08T12:35:53;1.05;;;0.60;;
1567;SDS011;777;47.156;8.326;2023-08-08T12:38:20;1.02;;;0.65;;
1567;SDS011;777;47.156;8.326;2023-08-08T12:40:47;0.98;;;0.57;;
1567;SDS011;777;47.156;8.326;2023-08-08T12:43:14;1.10;;;0.77;;
1567;SDS011;777;47.156;8.326;2023-08-08T12:45:42;1.58;;;0.70;;
1567;SDS011;777;47.156;8.326;2023-08-08T12:48:11;3.65;;;0.77;;
1567;SDS011;777;47.156;8.326;2023-08-08T12:50:40;1.48;;;0.90;;
1567;SDS011;777;47.156;8.326;2023-08-08T12:53:07;1.50;;;0.93;;
1567;SDS011;777;47.156;8.326;2023-08-08T12:55:35;1.63;;;0.60;;
1567;SDS011;777;47.156;8.326;2023-08-08T12:58:02;1.38;;;0.52;;
1567;SDS011;777;47.156;8.326;2023-08-08T13:00:30;1.00;;;0.60;;
1567;SDS011;777;47.156;8.326;2023-08-08T13:02:57;2.08;;;0.60;;
1567;SDS011;777;47.156;8.326;2023-08-08T13:05:24;1.27;;;0.70;;
1567;SDS011;777;47.156;8.326;2023-08-08T13:07:53;2.47;;;0.60;;
1567;SDS011;777;47.156;8.326;2023-08-08T13:10:20;1.70;;;0.68;;
1567;SDS011;777;47.156;8.326;2023-08-08T13:12:47;1.40;;;1.00;;
1567;SDS011;777;47.156;8.326;2023-08-08T13:15:14;1.35;;;0.70;;
1567;SDS011;777;47.156;8.326;2023-08-08T13:17:41;2.97;;;0.90;;
1567;SDS011;777;47.156;8.326;2023-08-08T13:20:09;2.65;;;0.80;;
1567;SDS011;777;47.156;8.326;2023-08-08T13:22:37;1.00;;;0.52;;
1567;SDS011;777;47.156;8.326;2023-08-08T13:25:06;1.40;;;0.55;;
1567;SDS011;777;47.156;8.326;2023-08-08T13:27:33;0.90;;;0.52;;
1567;SDS011;777;47.156;8.326;2023-08-08T13:30:01;1.80;;;0.70;;
1567;SDS011;777;47.156;8.326;2023-08-08T13:32:28;1.95;;;0.88;;
1567;SDS011;777;47.156;8.326;2023-08-08T13:34:56;1.92;;;0.77;;
1567;SDS011;777;47.156;8.326;2023-08-08T13:37:23;2.30;;;0.77;;
1567;SDS011;777;47.156;8.326;2023-08-08T13:39:50;1.98;;;0.70;;
1567;SDS011;777;47.156;8.326;2023-08-08T13:42:18;1.50;;;0.65;;
1567;SDS011;777;47.156;8.326;2023-08-08T13:44:45;2.65;;;0.60;;
1567;SDS011;777;47.156;8.326;2023-08-08T13:47:12;1.60;;;0.75;;
1567;SDS011;777;47.156;8.326;2023-08-08T13:49:39;0.98;;;0.65;;
1567;SDS011;777;47.156;8.326;2023-08-08T13:52:06;2.38;;;0.70;;
1567;SDS011;777;47.156;8.326;2023-08-08T13:54:35;1.63;;;0.60;;
1567;SDS011;777;47.156;8.326;2023-08-08T13:57:02;1.42;;;0.77;;
1567;SDS011;777;47.156;8.326;2023-08-08T13:59:31;2.13;;;0.77;;
1567;SDS011;777;47.156;8.326;2023-08-08T14:01:58;2.53;;;0.57;;
1567;SDS011;777;47.156;8.326;2023-08-08T14:04:25;2.08;;;0.80;;
1567;SDS011;777;47.156;8.326;2023-08-08T14:06:52;1.67;;;0.80;;
1567;SDS011;777;47.156;8.326;2023-08-08T14:09:19;1.17;;;0.75;;
1567;SDS011;777;47.156;8.326;2023-08-08T14:11:48;2.50;;;0.60;;
1567;SDS011;777;47.156;8.326;2023-08-08T14:14:15;2.10;;;0.80;;
1567;SDS011;777;47.156;8.326;2023-08-08T14:16:43;1.85;;;0.70;;
1567;SDS011;777;47.156;8.326;2023-08-08T14:19:10;2.22;;;0.73;;
1567;SDS011;777;47.156;8.326;2023-08-08T14:21:38;2.67;;;0.70;;
1567;SDS011;777;47.156;8.326;2023-08-08T14:24:05;2.78;;;0.70;;
1567;SDS011;777;47.156;8.326;2023-08-08T14:26:34;0.93;;;0.60;;
1567;SDS011;777;47.156;8.326;2023-08-08T14:29:01;1.00;;;0.70;;
1567;SDS011;777;47.156;8.326;2023-08-08T14:31:28;2.10;;;0.90;;
1567;SDS011;777;47.156;8.326;2023-08-08T14:33:56;1.13;;;0.70;;
1567;SDS011;777;47.156;8.326;2023-08-08T14:36:23;1.15;;;0.77;;
1567;SDS011;777;47.156;8.326;2023-08-08T14:38:50;1.27;;;0.70;;
1567;SDS011;777;47.156;8.326;2023-08-08T14:41:17;3.10;;;0.70;;
1567;SDS011;777;47.156;8.326;2023-08-08T14:43:44;1.77;;;0.73;;
1567;SDS011;777;47.156;8.326;2023-08-08T14:46:11;1.05;;;0.60;;
1567;SDS011;777;47.156;8.326;2023-08-08T14:48:39;1.55;;;0.77;;
1567;SDS011;777;47.156;8.326;2023-08-08T14:51:07;1.40;;;0.75;;
1567;SDS011;777;47.156;8.326;2023-08-08T14:53:34;1.52;;;0.77;;
1567;SDS011;777;47.156;8.326;2023-08-08T14:56:01;1.08;;;0.70;;
1567;SDS011;777;47.156;8.326;2023-08-08T14:58:28;1.63;;;0.80;;
1567;SDS011;777;47.156;8.326;2023-08-08T15:00:55;2.25;;;0.80;;
1567;SDS011;777;47.156;8.326;2023-08-08T15:03:23;1.98;;;0.80;;
1567;SDS011;777;47.156;8.326;2023-08-08T15:05:50;1.90;;;0.70;;
1567;SDS011;777;47.156;8.326;2023-08-08T15:08:18;1.40;;;0.80;;
1567;SDS011;777;47.156;8.326;2023-08-08T15:10:46;1.30;;;0.70;;
1567;SDS011;777;47.156;8.326;2023-08-08T15:13:13;1.45;;;0.80;;
1567;SDS011;777;47.156;8.326;2023-08-08T15:15:40;2.97;;;0.80;;
1567;SDS011;777;47.156;8.326;2023-08-08T15:18:07;1.65;;;0.90;;
1567;SDS011;777;47.156;8.326;2023-08-08T15:20:34;1.58;;;0.70;;
1567;SDS011;777;47.156;8.326;2023-08-08T15:23:02;2.65;;;1.08;;
1567;SDS011;777;47.156;8.326;2023-08-08T15:25:31;1.30;;;0.80;;
1567;SDS011;777;47.156;8.326;2023-08-08T15:27:58;1.40;;;0.82;;
1567;SDS011;777;47.156;8.326;2023-08-08T15:30:25;1.52;;;0.75;;
1567;SDS011;777;47.156;8.326;2023-08-08T15:32:52;1.48;;;0.73;;